NKS1 TJSJ-KMCO
Flight info
| Callsign | NKS1 |
|---|---|
| Flight time | N/A |
| Altitude | 34000 |
| Route | ACONY3 SAPPO Y280 OCTAL MUNGI1 |
| Aircraft | A320/M-SDE3FGHIRWY/LB1 |
Departure
| Time | N/A |
|---|---|
| Airport | Luis Munoz Marin International Airport (TJSJ) |
Arrival
| Time | 2026-05-04 16:09 |
|---|---|
| Airport | Orlando International Airport (KMCO) |
| Time | Latitude | Longitude | Altitude | Speed | Heading |
|---|---|---|---|---|---|
| 2026-05-04 15:23 | 25.64508 | -78.64023 | 35048 ft | 376 kts | 282° |
| 2026-05-04 15:23 | 25.65189 | -78.66818 | 35047 ft | 376 kts | 281° |
| 2026-05-04 15:24 | 25.67909 | -78.77991 | 35051 ft | 376 kts | 282° |
| 2026-05-04 15:25 | 25.69270 | -78.83571 | 35050 ft | 376 kts | 282° |
| 2026-05-04 15:26 | 25.71308 | -78.91935 | 35045 ft | 375 kts | 282° |
| 2026-05-04 15:26 | 25.73332 | -79.00295 | 35042 ft | 375 kts | 282° |
| 2026-05-04 15:27 | 25.75356 | -79.08648 | 35042 ft | 375 kts | 282° |
| 2026-05-04 15:28 | 25.77371 | -79.17006 | 35047 ft | 374 kts | 282° |
| 2026-05-04 15:29 | 25.79377 | -79.25364 | 35052 ft | 374 kts | 282° |
| 2026-05-04 15:30 | 25.84038 | -79.44869 | 35051 ft | 374 kts | 282° |
| 2026-05-04 15:31 | 25.86037 | -79.53229 | 35047 ft | 375 kts | 282° |
| 2026-05-04 15:32 | 25.89349 | -79.67181 | 35081 ft | 374 kts | 282° |
| 2026-05-04 15:34 | 25.93056 | -79.80970 | 35061 ft | 379 kts | 295° |
| 2026-05-04 15:34 | 25.97246 | -79.88432 | 35056 ft | 381 kts | 297° |
| 2026-05-04 15:35 | 26.00037 | -79.93415 | 34613 ft | 378 kts | 297° |
| 2026-05-04 15:35 | 26.01421 | -79.95886 | 34383 ft | 377 kts | 297° |
| 2026-05-04 15:35 | 26.02797 | -79.98338 | 34099 ft | 372 kts | 297° |
| 2026-05-04 15:36 | 26.05496 | -80.03156 | 33174 ft | 363 kts | 297° |
| 2026-05-04 15:36 | 26.06814 | -80.05520 | 32747 ft | 359 kts | 297° |
| 2026-05-04 15:36 | 26.08119 | -80.07863 | 32323 ft | 355 kts | 297° |
| 2026-05-04 15:37 | 26.09410 | -80.10179 | 31891 ft | 351 kts | 297° |
| 2026-05-04 15:37 | 26.10682 | -80.12463 | 31476 ft | 347 kts | 297° |
| 2026-05-04 15:37 | 26.11945 | -80.14729 | 31067 ft | 343 kts | 297° |
| 2026-05-04 15:37 | 26.13193 | -80.16968 | 30675 ft | 339 kts | 298° |
| 2026-05-04 15:38 | 26.14606 | -80.19062 | 30265 ft | 341 kts | 308° |
| 2026-05-04 15:38 | 26.16393 | -80.20801 | 29901 ft | 345 kts | 319° |
| 2026-05-04 15:38 | 26.18534 | -80.22140 | 29800 ft | 362 kts | 327° |
| 2026-05-04 15:38 | 26.20823 | -80.23336 | 29630 ft | 366 kts | 327° |
| 2026-05-04 15:39 | 26.23130 | -80.24533 | 29444 ft | 367 kts | 327° |
| 2026-05-04 15:39 | 26.25437 | -80.25730 | 29286 ft | 366 kts | 327° |
| 2026-05-04 15:39 | 26.30027 | -80.28110 | 28948 ft | 364 kts | 327° |
| 2026-05-04 15:40 | 26.32312 | -80.29298 | 28767 ft | 363 kts | 327° |
| 2026-05-04 15:40 | 26.34593 | -80.30486 | 28609 ft | 362 kts | 327° |
| 2026-05-04 15:40 | 26.36867 | -80.31671 | 28437 ft | 362 kts | 327° |
| 2026-05-04 15:40 | 26.39139 | -80.32858 | 28269 ft | 361 kts | 327° |
| 2026-05-04 15:41 | 26.41404 | -80.34044 | 28098 ft | 360 kts | 327° |
| 2026-05-04 15:41 | 26.43667 | -80.35231 | 27931 ft | 360 kts | 327° |
| 2026-05-04 15:41 | 26.45927 | -80.36415 | 27760 ft | 359 kts | 327° |
| 2026-05-04 15:41 | 26.48181 | -80.37591 | 27596 ft | 359 kts | 327° |
| 2026-05-04 15:42 | 26.50442 | -80.38769 | 27423 ft | 358 kts | 327° |
| 2026-05-04 15:42 | 26.52693 | -80.39946 | 27262 ft | 358 kts | 327° |
| 2026-05-04 15:42 | 26.54940 | -80.41121 | 27131 ft | 357 kts | 327° |
| 2026-05-04 15:42 | 26.57181 | -80.42291 | 26930 ft | 355 kts | 327° |
| 2026-05-04 15:43 | 26.59411 | -80.43456 | 26762 ft | 354 kts | 327° |
| 2026-05-04 15:43 | 26.61635 | -80.44620 | 26600 ft | 353 kts | 327° |
| 2026-05-04 15:43 | 26.63885 | -80.45714 | 26429 ft | 355 kts | 330° |
| 2026-05-04 15:43 | 26.66193 | -80.46708 | 26264 ft | 356 kts | 332° |
| 2026-05-04 15:44 | 26.68522 | -80.47642 | 26110 ft | 356 kts | 333° |
| 2026-05-04 15:44 | 26.70856 | -80.48559 | 25927 ft | 356 kts | 333° |
| 2026-05-04 15:44 | 26.73184 | -80.49479 | 25765 ft | 355 kts | 333° |
| 2026-05-04 15:44 | 26.75503 | -80.50410 | 25606 ft | 354 kts | 332° |
| 2026-05-04 15:45 | 26.77813 | -80.51351 | 25432 ft | 354 kts | 332° |
| 2026-05-04 15:45 | 26.80115 | -80.52300 | 25275 ft | 353 kts | 332° |
| 2026-05-04 15:45 | 26.82411 | -80.53257 | 25118 ft | 352 kts | 332° |
| 2026-05-04 15:45 | 26.84703 | -80.54210 | 24946 ft | 352 kts | 332° |
| 2026-05-04 15:46 | 26.86996 | -80.55161 | 24795 ft | 351 kts | 332° |
| 2026-05-04 15:46 | 26.89278 | -80.56107 | 24620 ft | 350 kts | 332° |
| 2026-05-04 15:46 | 26.91545 | -80.57048 | 24453 ft | 349 kts | 332° |
| 2026-05-04 15:46 | 26.93818 | -80.57992 | 24296 ft | 348 kts | 332° |
| 2026-05-04 15:47 | 26.96082 | -80.58933 | 24129 ft | 348 kts | 332° |
| 2026-05-04 15:47 | 26.98344 | -80.59871 | 23975 ft | 347 kts | 333° |
| 2026-05-04 15:47 | 27.00603 | -80.60808 | 23803 ft | 347 kts | 333° |
| 2026-05-04 15:47 | 27.02859 | -80.61743 | 23641 ft | 346 kts | 333° |
| 2026-05-04 15:48 | 27.05106 | -80.62676 | 23465 ft | 345 kts | 333° |
| 2026-05-04 15:48 | 27.07356 | -80.63614 | 23311 ft | 345 kts | 333° |
| 2026-05-04 15:48 | 27.11834 | -80.65482 | 22983 ft | 343 kts | 333° |
| 2026-05-04 15:49 | 27.14061 | -80.66412 | 22817 ft | 343 kts | 333° |
| 2026-05-04 15:49 | 27.16288 | -80.67342 | 22658 ft | 342 kts | 333° |
| 2026-05-04 15:49 | 27.18509 | -80.68271 | 22485 ft | 340 kts | 333° |
| 2026-05-04 15:49 | 27.20717 | -80.69199 | 22319 ft | 339 kts | 333° |
| 2026-05-04 15:50 | 27.22921 | -80.70125 | 22163 ft | 338 kts | 333° |
| 2026-05-04 15:50 | 27.25120 | -80.71050 | 21988 ft | 338 kts | 333° |
| 2026-05-04 15:50 | 27.27315 | -80.71971 | 21827 ft | 337 kts | 333° |
| 2026-05-04 15:50 | 27.29507 | -80.72888 | 21657 ft | 336 kts | 333° |
| 2026-05-04 15:51 | 27.31694 | -80.73806 | 21495 ft | 336 kts | 333° |
| 2026-05-04 15:51 | 27.33874 | -80.74728 | 21325 ft | 335 kts | 333° |
| 2026-05-04 15:51 | 27.36043 | -80.75654 | 21154 ft | 334 kts | 333° |
| 2026-05-04 15:51 | 27.38209 | -80.76581 | 20983 ft | 334 kts | 333° |
| 2026-05-04 15:52 | 27.40377 | -80.77513 | 20812 ft | 333 kts | 333° |
| 2026-05-04 15:52 | 27.42538 | -80.78441 | 20399 ft | 336 kts | 333° |
| 2026-05-04 15:52 | 27.44756 | -80.79403 | 19579 ft | 347 kts | 333° |
| 2026-05-04 15:52 | 27.47020 | -80.80386 | 19007 ft | 351 kts | 333° |
| 2026-05-04 15:53 | 27.49297 | -80.81374 | 18556 ft | 351 kts | 334° |
| 2026-05-04 15:53 | 27.51569 | -80.82358 | 18117 ft | 349 kts | 334° |
| 2026-05-04 15:53 | 27.53821 | -80.83331 | 17668 ft | 346 kts | 334° |
| 2026-05-04 15:53 | 27.56057 | -80.84297 | 17240 ft | 344 kts | 334° |
| 2026-05-04 15:54 | 27.58252 | -80.85312 | 16823 ft | 340 kts | 332° |
| 2026-05-04 15:54 | 27.60392 | -80.86401 | 16410 ft | 337 kts | 330° |
| 2026-05-04 15:54 | 27.62500 | -80.87525 | 16005 ft | 335 kts | 330° |
| 2026-05-04 15:54 | 27.64590 | -80.88656 | 15601 ft | 333 kts | 330° |
| 2026-05-04 15:55 | 27.66671 | -80.89782 | 15200 ft | 331 kts | 330° |
| 2026-05-04 15:55 | 27.68743 | -80.90892 | 14803 ft | 330 kts | 331° |
| 2026-05-04 15:55 | 27.70815 | -80.91990 | 14378 ft | 330 kts | 331° |
| 2026-05-04 15:55 | 27.72894 | -80.93086 | 13991 ft | 329 kts | 332° |
| 2026-05-04 15:56 | 27.74967 | -80.94172 | 13534 ft | 328 kts | 332° |
| 2026-05-04 15:56 | 27.77027 | -80.95248 | 13086 ft | 327 kts | 332° |
| 2026-05-04 15:56 | 27.79076 | -80.96321 | 12686 ft | 325 kts | 332° |
| 2026-05-04 15:56 | 27.81114 | -80.97389 | 12282 ft | 323 kts | 332° |
| 2026-05-04 15:57 | 27.83140 | -80.98453 | 11890 ft | 321 kts | 332° |
| 2026-05-04 15:57 | 27.85161 | -80.99516 | 11461 ft | 320 kts | 332° |
| 2026-05-04 15:57 | 27.87167 | -81.00572 | 11042 ft | 319 kts | 332° |
| 2026-05-04 15:57 | 27.89163 | -81.01622 | 10791 ft | 312 kts | 332° |
| 2026-05-04 15:58 | 27.91086 | -81.02633 | 10575 ft | 298 kts | 332° |
| 2026-05-04 15:58 | 27.92948 | -81.03610 | 10019 ft | 293 kts | 332° |
| 2026-05-04 15:58 | 27.94805 | -81.04525 | 9431 ft | 289 kts | 335° |
| 2026-05-04 15:58 | 27.96647 | -81.05328 | 9000 ft | 280 kts | 337° |
| 2026-05-04 15:59 | 27.98440 | -81.06064 | 8616 ft | 270 kts | 337° |
| 2026-05-04 15:59 | 28.00176 | -81.06768 | 8229 ft | 261 kts | 338° |
| 2026-05-04 15:59 | 28.01857 | -81.07485 | 7843 ft | 262 kts | 332° |
| 2026-05-04 15:59 | 28.03336 | -81.08704 | 7184 ft | 267 kts | 315° |
| 2026-05-04 16:00 | 28.04620 | -81.10177 | 6859 ft | 254 kts | 313° |
| 2026-05-04 16:00 | 28.05778 | -81.11584 | 6688 ft | 237 kts | 313° |
| 2026-05-04 16:00 | 28.06872 | -81.12940 | 6297 ft | 232 kts | 313° |
| 2026-05-04 16:00 | 28.07941 | -81.14279 | 5890 ft | 228 kts | 313° |
| 2026-05-04 16:01 | 28.09001 | -81.15619 | 5423 ft | 229 kts | 313° |
| 2026-05-04 16:01 | 28.10064 | -81.16969 | 5024 ft | 229 kts | 313° |
| 2026-05-04 16:01 | 28.11114 | -81.18314 | 4587 ft | 229 kts | 313° |
| 2026-05-04 16:01 | 28.12156 | -81.19668 | 4166 ft | 228 kts | 313° |
| 2026-05-04 16:02 | 28.13185 | -81.21027 | 3771 ft | 226 kts | 313° |
| 2026-05-04 16:02 | 28.14189 | -81.22386 | 3345 ft | 225 kts | 313° |
| 2026-05-04 16:02 | 28.16185 | -81.25080 | 3007 ft | 224 kts | 313° |
| 2026-05-04 16:03 | 28.17177 | -81.26446 | 3014 ft | 226 kts | 313° |
| 2026-05-04 16:03 | 28.18173 | -81.27820 | 3007 ft | 226 kts | 314° |
| 2026-05-04 16:03 | 28.19169 | -81.29192 | 3006 ft | 225 kts | 318° |
| 2026-05-04 16:03 | 28.20294 | -81.30406 | 3012 ft | 223 kts | 322° |
| 2026-05-04 16:04 | 28.21462 | -81.31554 | 3002 ft | 221 kts | 325° |
| 2026-05-04 16:04 | 28.24255 | -81.32483 | 3007 ft | 203 kts | 3° |
| 2026-05-04 16:04 | 28.25638 | -81.32495 | 3001 ft | 197 kts | 2° |
| 2026-05-04 16:05 | 28.26997 | -81.32507 | 2886 ft | 195 kts | 2° |
| 2026-05-04 16:05 | 28.28339 | -81.32521 | 2652 ft | 192 kts | 2° |
| 2026-05-04 16:05 | 28.30922 | -81.32548 | 2156 ft | 181 kts | 2° |
| 2026-05-04 16:06 | 28.32146 | -81.32562 | 1948 ft | 169 kts | 3° |
| 2026-05-04 16:06 | 28.35116 | -81.32594 | 1361 ft | 157 kts | 2° |
| 2026-05-04 16:07 | 28.36555 | -81.32609 | 1085 ft | 155 kts | 3° |
| 2026-05-04 16:07 | 28.39638 | -81.32643 | 512 ft | 140 kts | 5° |
| 2026-05-04 16:08 | 28.40576 | -81.32653 | 332 ft | 134 kts | 4° |
| 2026-05-04 16:08 | 28.43105 | -81.32672 | 107 ft | 63 kts | 0° |
| 2026-05-04 16:09 | 28.43640 | -81.32654 | 105 ft | 29 kts | 19° |
| 2026-05-04 16:09 | 28.43834 | -81.32381 | 106 ft | 22 kts | 57° |
| 2026-05-04 16:10 | 28.43981 | -81.32091 | 109 ft | 22 kts | 62° |
| 2026-05-04 16:11 | 28.43834 | -81.31689 | 105 ft | 16 kts | 153° |
| 2026-05-04 16:11 | 28.43744 | -81.31628 | 103 ft | 15 kts | 148° |
| 2026-05-04 16:12 | 28.43624 | -81.31554 | 102 ft | 0 kts | 149° |